sensor_id;sensor_type;location;lat;lon;timestamp;temperature;humidity
25918;DHT22;13899;51.174;4.456;2023-08-31T00:02:06;13.70;99.90
25918;DHT22;13899;51.174;4.456;2023-08-31T00:04:32;13.60;99.90
25918;DHT22;13899;51.174;4.456;2023-08-31T00:06:58;13.60;99.90
25918;DHT22;13899;51.174;4.456;2023-08-31T00:09:24;13.40;99.90
25918;DHT22;13899;51.174;4.456;2023-08-31T00:11:50;13.30;99.90
25918;DHT22;13899;51.174;4.456;2023-08-31T00:14:16;13.30;99.90
25918;DHT22;13899;51.174;4.456;2023-08-31T00:16:42;13.20;99.90
25918;DHT22;13899;51.174;4.456;2023-08-31T00:19:11;13.30;99.90
25918;DHT22;13899;51.174;4.456;2023-08-31T00:21:37;13.50;99.90
25918;DHT22;13899;51.174;4.456;2023-08-31T00:24:03;13.90;99.90
25918;DHT22;13899;51.174;4.456;2023-08-31T00:26:29;14.00;99.90
25918;DHT22;13899;51.174;4.456;2023-08-31T00:28:56;13.40;99.90
25918;DHT22;13899;51.174;4.456;2023-08-31T00:31:22;13.20;99.90
25918;DHT22;13899;51.174;4.456;2023-08-31T00:33:48;13.30;99.90
25918;DHT22;13899;51.174;4.456;2023-08-31T00:36:14;13.60;99.90
25918;DHT22;13899;51.174;4.456;2023-08-31T00:38:40;13.60;99.90
25918;DHT22;13899;51.174;4.456;2023-08-31T00:41:05;13.50;99.90
25918;DHT22;13899;51.174;4.456;2023-08-31T00:43:31;13.50;99.90
25918;DHT22;13899;51.174;4.456;2023-08-31T00:45:57;13.60;99.90
25918;DHT22;13899;51.174;4.456;2023-08-31T00:48:24;13.50;99.90
25918;DHT22;13899;51.174;4.456;2023-08-31T00:50:50;13.20;99.90
25918;DHT22;13899;51.174;4.456;2023-08-31T00:53:17;13.40;99.90
25918;DHT22;13899;51.174;4.456;2023-08-31T00:55:46;13.40;99.90
25918;DHT22;13899;51.174;4.456;2023-08-31T00:58:12;13.40;99.90
25918;DHT22;13899;51.174;4.456;2023-08-31T01:06:02;12.40;99.90
25918;DHT22;13899;51.174;4.456;2023-08-31T01:11:12;12.60;99.90
25918;DHT22;13899;51.174;4.456;2023-08-31T01:13:45;12.80;99.90
25918;DHT22;13899;51.174;4.456;2023-08-31T01:16:15;13.10;99.90
25918;DHT22;13899;51.174;4.456;2023-08-31T01:18:42;12.90;99.90
25918;DHT22;13899;51.174;4.456;2023-08-31T01:21:20;12.70;99.90
25918;DHT22;13899;51.174;4.456;2023-08-31T01:23:55;12.80;99.90
25918;DHT22;13899;51.174;4.456;2023-08-31T01:26:22;12.80;99.90
25918;DHT22;13899;51.174;4.456;2023-08-31T01:28:48;12.60;99.90
25918;DHT22;13899;51.174;4.456;2023-08-31T01:31:14;12.70;99.90
25918;DHT22;13899;51.174;4.456;2023-08-31T01:33:41;12.80;99.90
25918;DHT22;13899;51.174;4.456;2023-08-31T01:36:23;12.90;99.90
25918;DHT22;13899;51.174;4.456;2023-08-31T01:39:03;12.80;99.90
25918;DHT22;13899;51.174;4.456;2023-08-31T01:41:34;12.80;99.90
25918;DHT22;13899;51.174;4.456;2023-08-31T01:44:01;12.80;99.90
25918;DHT22;13899;51.174;4.456;2023-08-31T01:46:27;12.90;99.90
25918;DHT22;13899;51.174;4.456;2023-08-31T01:48:53;13.10;99.90
25918;DHT22;13899;51.174;4.456;2023-08-31T01:51:19;13.00;99.90
25918;DHT22;13899;51.174;4.456;2023-08-31T01:53:44;13.10;99.90
25918;DHT22;13899;51.174;4.456;2023-08-31T01:56:10;13.30;99.90
25918;DHT22;13899;51.174;4.456;2023-08-31T01:58:36;12.90;99.90
25918;DHT22;13899;51.174;4.456;2023-08-31T02:01:01;12.90;99.90
25918;DHT22;13899;51.174;4.456;2023-08-31T02:03:27;12.70;99.90
25918;DHT22;13899;51.174;4.456;2023-08-31T02:05:53;12.60;99.90
25918;DHT22;13899;51.174;4.456;2023-08-31T02:08:18;12.80;99.90
25918;DHT22;13899;51.174;4.456;2023-08-31T02:10:46;12.90;99.90
25918;DHT22;13899;51.174;4.456;2023-08-31T02:13:14;13.10;99.90
25918;DHT22;13899;51.174;4.456;2023-08-31T02:15:39;12.80;99.90
25918;DHT22;13899;51.174;4.456;2023-08-31T02:18:07;13.00;99.90
25918;DHT22;13899;51.174;4.456;2023-08-31T02:20:32;13.00;99.90
25918;DHT22;13899;51.174;4.456;2023-08-31T02:22:59;12.80;99.90
25918;DHT22;13899;51.174;4.456;2023-08-31T02:25:25;12.80;99.90
25918;DHT22;13899;51.174;4.456;2023-08-31T02:27:53;12.70;99.90
25918;DHT22;13899;51.174;4.456;2023-08-31T02:30:19;12.40;99.90
25918;DHT22;13899;51.174;4.456;2023-08-31T02:32:45;12.60;99.90
25918;DHT22;13899;51.174;4.456;2023-08-31T02:35:10;12.60;99.90
25918;DHT22;13899;51.174;4.456;2023-08-31T02:37:37;12.90;99.90
25918;DHT22;13899;51.174;4.456;2023-08-31T02:40:04;12.90;99.90
25918;DHT22;13899;51.174;4.456;2023-08-31T02:42:30;12.70;99.90
25918;DHT22;13899;51.174;4.456;2023-08-31T02:44:55;12.60;99.90
25918;DHT22;13899;51.174;4.456;2023-08-31T02:47:21;12.60;99.90
25918;DHT22;13899;51.174;4.456;2023-08-31T02:49:47;12.60;99.90
25918;DHT22;13899;51.174;4.456;2023-08-31T02:52:13;12.60;99.90
25918;DHT22;13899;51.174;4.456;2023-08-31T02:54:39;12.90;99.90
25918;DHT22;13899;51.174;4.456;2023-08-31T02:57:05;12.90;99.90
25918;DHT22;13899;51.174;4.456;2023-08-31T02:59:30;12.90;99.90
25918;DHT22;13899;51.174;4.456;2023-08-31T03:01:56;12.60;99.90
25918;DHT22;13899;51.174;4.456;2023-08-31T03:04:22;12.70;99.90
25918;DHT22;13899;51.174;4.456;2023-08-31T03:06:47;12.80;99.90
25918;DHT22;13899;51.174;4.456;2023-08-31T03:09:13;13.00;99.90
25918;DHT22;13899;51.174;4.456;2023-08-31T03:11:39;12.90;99.90
25918;DHT22;13899;51.174;4.456;2023-08-31T03:14:04;12.60;99.90
25918;DHT22;13899;51.174;4.456;2023-08-31T03:16:30;12.70;99.90
25918;DHT22;13899;51.174;4.456;2023-08-31T03:18:55;12.70;99.90
25918;DHT22;13899;51.174;4.456;2023-08-31T03:21:21;12.40;99.90
25918;DHT22;13899;51.174;4.456;2023-08-31T03:23:47;12.50;99.90
25918;DHT22;13899;51.174;4.456;2023-08-31T03:26:12;12.50;99.90
25918;DHT22;13899;51.174;4.456;2023-08-31T03:28:38;12.50;99.90
25918;DHT22;13899;51.174;4.456;2023-08-31T03:31:06;12.60;99.90
25918;DHT22;13899;51.174;4.456;2023-08-31T03:33:31;12.50;99.90
25918;DHT22;13899;51.174;4.456;2023-08-31T03:36:04;12.40;99.90
25918;DHT22;13899;51.174;4.456;2023-08-31T03:38:33;12.50;99.90
25918;DHT22;13899;51.174;4.456;2023-08-31T03:41:03;12.50;99.90
25918;DHT22;13899;51.174;4.456;2023-08-31T03:43:29;12.50;99.90
25918;DHT22;13899;51.174;4.456;2023-08-31T03:45:55;12.80;99.90
25918;DHT22;13899;51.174;4.456;2023-08-31T03:48:22;12.50;99.90
25918;DHT22;13899;51.174;4.456;2023-08-31T03:50:55;12.50;99.90
25918;DHT22;13899;51.174;4.456;2023-08-31T03:53:20;12.50;99.90
25918;DHT22;13899;51.174;4.456;2023-08-31T03:55:46;12.90;99.90
25918;DHT22;13899;51.174;4.456;2023-08-31T03:58:12;12.80;99.90
25918;DHT22;13899;51.174;4.456;2023-08-31T04:00:38;12.70;99.90
25918;DHT22;13899;51.174;4.456;2023-08-31T04:03:04;13.00;99.90
25918;DHT22;13899;51.174;4.456;2023-08-31T04:05:34;12.70;99.90
25918;DHT22;13899;51.174;4.456;2023-08-31T04:08:00;12.90;99.90
25918;DHT22;13899;51.174;4.456;2023-08-31T04:10:26;12.70;99.90
25918;DHT22;13899;51.174;4.456;2023-08-31T04:12:52;13.00;99.90
25918;DHT22;13899;51.174;4.456;2023-08-31T04:15:18;12.80;99.90
25918;DHT22;13899;51.174;4.456;2023-08-31T04:17:43;12.70;99.90
25918;DHT22;13899;51.174;4.456;2023-08-31T04:20:10;12.50;99.90
25918;DHT22;13899;51.174;4.456;2023-08-31T04:22:36;12.40;99.90
25918;DHT22;13899;51.174;4.456;2023-08-31T04:25:02;12.50;99.90
25918;DHT22;13899;51.174;4.456;2023-08-31T04:27:28;12.90;99.90
25918;DHT22;13899;51.174;4.456;2023-08-31T04:29:55;13.00;99.90
25918;DHT22;13899;51.174;4.456;2023-08-31T04:32:21;13.10;99.90
25918;DHT22;13899;51.174;4.456;2023-08-31T04:34:46;12.90;99.90
25918;DHT22;13899;51.174;4.456;2023-08-31T04:37:12;12.60;99.90
25918;DHT22;13899;51.174;4.456;2023-08-31T04:39:37;12.70;99.90
25918;DHT22;13899;51.174;4.456;2023-08-31T04:42:03;12.50;99.90
25918;DHT22;13899;51.174;4.456;2023-08-31T04:44:29;12.40;99.90
25918;DHT22;13899;51.174;4.456;2023-08-31T04:46:55;12.60;99.90
25918;DHT22;13899;51.174;4.456;2023-08-31T04:49:21;12.50;99.90
25918;DHT22;13899;51.174;4.456;2023-08-31T04:51:46;12.50;99.90
25918;DHT22;13899;51.174;4.456;2023-08-31T04:54:12;12.40;99.90
25918;DHT22;13899;51.174;4.456;2023-08-31T04:56:38;12.50;99.90
25918;DHT22;13899;51.174;4.456;2023-08-31T04:59:04;12.40;99.90
25918;DHT22;13899;51.174;4.456;2023-08-31T05:01:29;12.40;99.90
25918;DHT22;13899;51.174;4.456;2023-08-31T05:03:55;12.40;99.90
25918;DHT22;13899;51.174;4.456;2023-08-31T05:06:21;12.50;99.90
25918;DHT22;13899;51.174;4.456;2023-08-31T05:08:47;12.50;99.90
25918;DHT22;13899;51.174;4.456;2023-08-31T05:11:14;12.70;99.90
25918;DHT22;13899;51.174;4.456;2023-08-31T05:13:40;13.00;99.90
25918;DHT22;13899;51.174;4.456;2023-08-31T05:16:08;12.90;99.90
25918;DHT22;13899;51.174;4.456;2023-08-31T05:18:34;13.00;99.90
25918;DHT22;13899;51.174;4.456;2023-08-31T05:21:00;13.20;99.90
25918;DHT22;13899;51.174;4.456;2023-08-31T05:23:25;13.10;99.90
25918;DHT22;13899;51.174;4.456;2023-08-31T05:25:51;13.10;99.90
25918;DHT22;13899;51.174;4.456;2023-08-31T05:28:17;13.00;99.90
25918;DHT22;13899;51.174;4.456;2023-08-31T05:30:56;12.90;99.90
25918;DHT22;13899;51.174;4.456;2023-08-31T05:33:22;12.90;99.90
25918;DHT22;13899;51.174;4.456;2023-08-31T05:35:51;13.20;99.90
25918;DHT22;13899;51.174;4.456;2023-08-31T05:38:17;13.00;99.90
25918;DHT22;13899;51.174;4.456;2023-08-31T05:40:45;13.00;99.90
25918;DHT22;13899;51.174;4.456;2023-08-31T05:43:15;12.90;99.90
25918;DHT22;13899;51.174;4.456;2023-08-31T05:45:42;12.90;99.90
25918;DHT22;13899;51.174;4.456;2023-08-31T05:48:08;13.00;99.90
25918;DHT22;13899;51.174;4.456;2023-08-31T05:50:34;13.00;99.90
25918;DHT22;13899;51.174;4.456;2023-08-31T05:53:05;13.20;99.90
25918;DHT22;13899;51.174;4.456;2023-08-31T05:55:33;13.50;99.90
25918;DHT22;13899;51.174;4.456;2023-08-31T05:57:58;13.50;99.90
25918;DHT22;13899;51.174;4.456;2023-08-31T06:00:24;13.50;99.90
25918;DHT22;13899;51.174;4.456;2023-08-31T06:02:50;13.50;99.90
25918;DHT22;13899;51.174;4.456;2023-08-31T06:05:16;13.30;99.90
25918;DHT22;13899;51.174;4.456;2023-08-31T06:07:45;13.40;99.90
25918;DHT22;13899;51.174;4.456;2023-08-31T06:10:11;13.40;99.90
25918;DHT22;13899;51.174;4.456;2023-08-31T06:12:36;13.30;99.90
25918;DHT22;13899;51.174;4.456;2023-08-31T06:15:02;13.50;99.90
25918;DHT22;13899;51.174;4.456;2023-08-31T06:17:28;13.60;99.90
25918;DHT22;13899;51.174;4.456;2023-08-31T06:19:54;13.70;99.90
25918;DHT22;13899;51.174;4.456;2023-08-31T06:22:20;13.70;99.90
25918;DHT22;13899;51.174;4.456;2023-08-31T06:24:48;13.70;99.90
25918;DHT22;13899;51.174;4.456;2023-08-31T06:27:14;13.40;99.90
25918;DHT22;13899;51.174;4.456;2023-08-31T06:29:41;13.40;99.90
25918;DHT22;13899;51.174;4.456;2023-08-31T06:32:07;13.40;99.90
25918;DHT22;13899;51.174;4.456;2023-08-31T06:34:32;13.30;99.90
25918;DHT22;13899;51.174;4.456;2023-08-31T06:36:58;13.30;99.90
25918;DHT22;13899;51.174;4.456;2023-08-31T06:39:24;13.30;99.90
25918;DHT22;13899;51.174;4.456;2023-08-31T06:41:50;13.40;99.90
25918;DHT22;13899;51.174;4.456;2023-08-31T06:44:16;13.30;99.90
25918;DHT22;13899;51.174;4.456;2023-08-31T06:46:42;13.30;99.90
25918;DHT22;13899;51.174;4.456;2023-08-31T06:49:08;13.70;99.90
25918;DHT22;13899;51.174;4.456;2023-08-31T06:51:34;13.70;99.90
25918;DHT22;13899;51.174;4.456;2023-08-31T06:54:00;14.00;99.90
25918;DHT22;13899;51.174;4.456;2023-08-31T06:56:35;14.10;99.90
25918;DHT22;13899;51.174;4.456;2023-08-31T06:59:02;14.20;99.90
25918;DHT22;13899;51.174;4.456;2023-08-31T07:01:32;14.40;99.90
25918;DHT22;13899;51.174;4.456;2023-08-31T07:03:58;14.30;99.90
25918;DHT22;13899;51.174;4.456;2023-08-31T07:06:23;14.30;99.90
25918;DHT22;13899;51.174;4.456;2023-08-31T07:08:49;14.50;99.90
25918;DHT22;13899;51.174;4.456;2023-08-31T07:11:16;14.70;99.90
25918;DHT22;13899;51.174;4.456;2023-08-31T07:13:41;14.90;99.90
25918;DHT22;13899;51.174;4.456;2023-08-31T07:16:07;14.90;99.90
25918;DHT22;13899;51.174;4.456;2023-08-31T07:18:33;14.80;99.90
25918;DHT22;13899;51.174;4.456;2023-08-31T07:20:58;14.80;99.90
25918;DHT22;13899;51.174;4.456;2023-08-31T07:23:24;14.90;99.90
25918;DHT22;13899;51.174;4.456;2023-08-31T07:25:50;15.10;99.90
25918;DHT22;13899;51.174;4.456;2023-08-31T07:28:15;15.00;99.90
25918;DHT22;13899;51.174;4.456;2023-08-31T07:30:41;15.10;99.90
25918;DHT22;13899;51.174;4.456;2023-08-31T07:33:07;15.20;99.90
25918;DHT22;13899;51.174;4.456;2023-08-31T07:35:32;15.20;99.90
25918;DHT22;13899;51.174;4.456;2023-08-31T07:37:58;15.40;99.90
25918;DHT22;13899;51.174;4.456;2023-08-31T07:40:24;15.60;99.90
25918;DHT22;13899;51.174;4.456;2023-08-31T07:42:50;15.40;99.90
25918;DHT22;13899;51.174;4.456;2023-08-31T07:45:17;15.70;99.90
25918;DHT22;13899;51.174;4.456;2023-08-31T07:47:43;15.90;99.90
25918;DHT22;13899;51.174;4.456;2023-08-31T07:50:09;16.10;99.90
25918;DHT22;13899;51.174;4.456;2023-08-31T07:52:35;16.50;99.90
25918;DHT22;13899;51.174;4.456;2023-08-31T07:55:01;16.00;99.90
25918;DHT22;13899;51.174;4.456;2023-08-31T07:57:27;15.70;99.90
25918;DHT22;13899;51.174;4.456;2023-08-31T07:59:52;15.80;99.90
25918;DHT22;13899;51.174;4.456;2023-08-31T08:02:18;15.80;99.90
25918;DHT22;13899;51.174;4.456;2023-08-31T08:04:46;15.70;99.90
25918;DHT22;13899;51.174;4.456;2023-08-31T08:07:11;15.70;99.90
25918;DHT22;13899;51.174;4.456;2023-08-31T08:09:37;16.00;99.90
25918;DHT22;13899;51.174;4.456;2023-08-31T08:12:03;15.90;99.90
25918;DHT22;13899;51.174;4.456;2023-08-31T08:14:29;16.00;99.90
25918;DHT22;13899;51.174;4.456;2023-08-31T08:16:55;16.00;99.90
25918;DHT22;13899;51.174;4.456;2023-08-31T08:19:22;16.30;99.90
25918;DHT22;13899;51.174;4.456;2023-08-31T08:21:49;16.50;99.90
25918;DHT22;13899;51.174;4.456;2023-08-31T08:24:14;16.90;99.90
25918;DHT22;13899;51.174;4.456;2023-08-31T08:26:40;16.70;99.90
25918;DHT22;13899;51.174;4.456;2023-08-31T08:29:06;16.80;99.90
25918;DHT22;13899;51.174;4.456;2023-08-31T08:31:31;17.00;99.90
25918;DHT22;13899;51.174;4.456;2023-08-31T08:33:57;16.90;99.90
25918;DHT22;13899;51.174;4.456;2023-08-31T08:36:22;16.90;99.90
25918;DHT22;13899;51.174;4.456;2023-08-31T08:38:48;16.80;99.90
25918;DHT22;13899;51.174;4.456;2023-08-31T08:41:14;17.30;99.90
25918;DHT22;13899;51.174;4.456;2023-08-31T08:43:43;17.30;99.90
25918;DHT22;13899;51.174;4.456;2023-08-31T08:46:10;17.50;99.90
25918;DHT22;13899;51.174;4.456;2023-08-31T08:48:36;17.60;99.90
25918;DHT22;13899;51.174;4.456;2023-08-31T08:51:03;17.90;99.90
25918;DHT22;13899;51.174;4.456;2023-08-31T08:53:29;17.70;99.90
25918;DHT22;13899;51.174;4.456;2023-08-31T08:55:55;17.90;99.90
25918;DHT22;13899;51.174;4.456;2023-08-31T08:58:21;18.10;99.90
25918;DHT22;13899;51.174;4.456;2023-08-31T09:00:47;19.40;99.90
25918;DHT22;13899;51.174;4.456;2023-08-31T09:03:13;19.90;99.90
25918;DHT22;13899;51.174;4.456;2023-08-31T09:05:39;21.30;99.90
25918;DHT22;13899;51.174;4.456;2023-08-31T09:08:06;20.90;99.90
25918;DHT22;13899;51.174;4.456;2023-08-31T09:10:42;20.50;99.90
25918;DHT22;13899;51.174;4.456;2023-08-31T09:13:12;19.20;99.90
25918;DHT22;13899;51.174;4.456;2023-08-31T09:15:45;19.30;99.90
25918;DHT22;13899;51.174;4.456;2023-08-31T09:18:36;19.10;99.90
25918;DHT22;13899;51.174;4.456;2023-08-31T09:21:02;19.90;99.90
25918;DHT22;13899;51.174;4.456;2023-08-31T09:23:28;20.10;99.90
25918;DHT22;13899;51.174;4.456;2023-08-31T09:25:55;21.00;99.90
25918;DHT22;13899;51.174;4.456;2023-08-31T09:28:23;21.90;99.90
25918;DHT22;13899;51.174;4.456;2023-08-31T09:30:50;22.20;99.90
25918;DHT22;13899;51.174;4.456;2023-08-31T09:33:18;23.40;99.90
25918;DHT22;13899;51.174;4.456;2023-08-31T09:35:51;22.30;99.90
25918;DHT22;13899;51.174;4.456;2023-08-31T09:38:18;21.40;99.90
25918;DHT22;13899;51.174;4.456;2023-08-31T09:40:44;21.30;99.90
25918;DHT22;13899;51.174;4.456;2023-08-31T09:43:09;22.10;99.90
25918;DHT22;13899;51.174;4.456;2023-08-31T09:45:36;22.20;99.90
25918;DHT22;13899;51.174;4.456;2023-08-31T09:48:03;22.00;99.90
25918;DHT22;13899;51.174;4.456;2023-08-31T09:50:31;22.90;99.90
25918;DHT22;13899;51.174;4.456;2023-08-31T09:53:03;22.60;99.90
25918;DHT22;13899;51.174;4.456;2023-08-31T09:55:31;22.70;99.90
25918;DHT22;13899;51.174;4.456;2023-08-31T09:57:59;22.70;99.90
25918;DHT22;13899;51.174;4.456;2023-08-31T10:00:30;23.50;99.90
25918;DHT22;13899;51.174;4.456;2023-08-31T10:03:02;23.00;99.90
25918;DHT22;13899;51.174;4.456;2023-08-31T10:05:32;22.00;99.90
25918;DHT22;13899;51.174;4.456;2023-08-31T10:08:02;21.90;99.90
25918;DHT22;13899;51.174;4.456;2023-08-31T10:10:28;22.80;99.90
25918;DHT22;13899;51.174;4.456;2023-08-31T10:12:55;22.60;99.90
25918;DHT22;13899;51.174;4.456;2023-08-31T10:15:21;22.70;99.90
25918;DHT22;13899;51.174;4.456;2023-08-31T10:17:47;22.40;99.90
25918;DHT22;13899;51.174;4.456;2023-08-31T10:20:19;22.80;99.90
25918;DHT22;13899;51.174;4.456;2023-08-31T10:22:49;23.10;99.90
25918;DHT22;13899;51.174;4.456;2023-08-31T10:25:16;22.50;99.90
25918;DHT22;13899;51.174;4.456;2023-08-31T10:27:43;22.80;99.90
25918;DHT22;13899;51.174;4.456;2023-08-31T10:36:01;21.90;99.90
25918;DHT22;13899;51.174;4.456;2023-08-31T10:38:30;23.10;99.90
25918;DHT22;13899;51.174;4.456;2023-08-31T10:41:23;25.10;99.90
25918;DHT22;13899;51.174;4.456;2023-08-31T10:43:54;23.00;99.90
25918;DHT22;13899;51.174;4.456;2023-08-31T10:46:33;23.70;99.90
25918;DHT22;13899;51.174;4.456;2023-08-31T10:49:00;23.30;99.90
25918;DHT22;13899;51.174;4.456;2023-08-31T10:51:31;23.30;99.90
25918;DHT22;13899;51.174;4.456;2023-08-31T10:54:19;25.30;99.90
25918;DHT22;13899;51.174;4.456;2023-08-31T10:59:24;23.80;99.90
25918;DHT22;13899;51.174;4.456;2023-08-31T11:01:57;26.20;99.90
25918;DHT22;13899;51.174;4.456;2023-08-31T11:04:27;27.30;99.90
25918;DHT22;13899;51.174;4.456;2023-08-31T11:07:16;24.50;99.90
25918;DHT22;13899;51.174;4.456;2023-08-31T11:09:42;24.40;99.90
25918;DHT22;13899;51.174;4.456;2023-08-31T11:12:08;22.70;99.90
25918;DHT22;13899;51.174;4.456;2023-08-31T11:14:35;22.50;99.90
25918;DHT22;13899;51.174;4.456;2023-08-31T11:17:01;22.70;99.90
25918;DHT22;13899;51.174;4.456;2023-08-31T11:19:28;24.40;99.90
25918;DHT22;13899;51.174;4.456;2023-08-31T11:21:54;24.40;99.90
25918;DHT22;13899;51.174;4.456;2023-08-31T11:24:20;24.70;99.90
25918;DHT22;13899;51.174;4.456;2023-08-31T11:26:50;25.30;99.90
25918;DHT22;13899;51.174;4.456;2023-08-31T11:29:17;24.00;99.90
25918;DHT22;13899;51.174;4.456;2023-08-31T11:31:48;24.20;99.90
25918;DHT22;13899;51.174;4.456;2023-08-31T11:34:16;23.60;99.90
25918;DHT22;13899;51.174;4.456;2023-08-31T11:36:59;23.60;99.90
25918;DHT22;13899;51.174;4.456;2023-08-31T11:39:57;22.90;99.90
25918;DHT22;13899;51.174;4.456;2023-08-31T11:42:31;22.80;99.90
25918;DHT22;13899;51.174;4.456;2023-08-31T11:45:00;22.60;99.90
25918;DHT22;13899;51.174;4.456;2023-08-31T11:47:36;23.00;99.90
25918;DHT22;13899;51.174;4.456;2023-08-31T11:50:14;23.70;99.90
25918;DHT22;13899;51.174;4.456;2023-08-31T11:52:59;23.80;99.90
25918;DHT22;13899;51.174;4.456;2023-08-31T11:55:36;22.10;99.90
25918;DHT22;13899;51.174;4.456;2023-08-31T11:58:01;21.90;99.90
25918;DHT22;13899;51.174;4.456;2023-08-31T12:00:29;22.40;99.90
25918;DHT22;13899;51.174;4.456;2023-08-31T12:02:59;23.20;99.90
25918;DHT22;13899;51.174;4.456;2023-08-31T12:05:29;22.90;99.90
25918;DHT22;13899;51.174;4.456;2023-08-31T12:08:12;23.10;99.90
25918;DHT22;13899;51.174;4.456;2023-08-31T12:11:00;22.90;99.90
25918;DHT22;13899;51.174;4.456;2023-08-31T12:13:37;24.70;99.90
25918;DHT22;13899;51.174;4.456;2023-08-31T12:16:14;25.00;99.90
25918;DHT22;13899;51.174;4.456;2023-08-31T12:18:47;26.40;99.90
25918;DHT22;13899;51.174;4.456;2023-08-31T12:21:13;26.20;99.90
25918;DHT22;13899;51.174;4.456;2023-08-31T12:23:46;26.40;99.90
25918;DHT22;13899;51.174;4.456;2023-08-31T12:26:32;27.40;99.90
25918;DHT22;13899;51.174;4.456;2023-08-31T12:29:30;27.40;99.90
25918;DHT22;13899;51.174;4.456;2023-08-31T12:32:18;24.70;99.90
25918;DHT22;13899;51.174;4.456;2023-08-31T12:35:05;26.40;99.90
25918;DHT22;13899;51.174;4.456;2023-08-31T12:37:32;28.90;99.40
25918;DHT22;13899;51.174;4.456;2023-08-31T12:40:01;27.50;98.40
25918;DHT22;13899;51.174;4.456;2023-08-31T12:42:32;27.80;98.00
25918;DHT22;13899;51.174;4.456;2023-08-31T12:44:58;27.10;98.80
25918;DHT22;13899;51.174;4.456;2023-08-31T12:47:24;24.70;99.90
25918;DHT22;13899;51.174;4.456;2023-08-31T12:50:19;24.20;99.90
25918;DHT22;13899;51.174;4.456;2023-08-31T12:53:04;23.80;99.90
25918;DHT22;13899;51.174;4.456;2023-08-31T12:55:34;23.50;99.90
25918;DHT22;13899;51.174;4.456;2023-08-31T12:58:23;24.40;99.90
25918;DHT22;13899;51.174;4.456;2023-08-31T13:00:57;25.90;99.90
25918;DHT22;13899;51.174;4.456;2023-08-31T13:03:38;28.20;99.90
25918;DHT22;13899;51.174;4.456;2023-08-31T13:06:08;27.90;98.00
25918;DHT22;13899;51.174;4.456;2023-08-31T13:08:39;27.20;96.90
25918;DHT22;13899;51.174;4.456;2023-08-31T13:11:28;25.30;99.90
25918;DHT22;13899;51.174;4.456;2023-08-31T13:13:54;24.00;99.90
25918;DHT22;13899;51.174;4.456;2023-08-31T13:16:22;23.30;99.90
25918;DHT22;13899;51.174;4.456;2023-08-31T13:18:49;23.00;99.90
25918;DHT22;13899;51.174;4.456;2023-08-31T13:21:15;22.70;99.90
25918;DHT22;13899;51.174;4.456;2023-08-31T13:23:41;22.60;99.90
25918;DHT22;13899;51.174;4.456;2023-08-31T13:26:08;21.90;99.90
25918;DHT22;13899;51.174;4.456;2023-08-31T13:28:55;22.50;99.90
25918;DHT22;13899;51.174;4.456;2023-08-31T13:31:27;23.50;99.90
25918;DHT22;13899;51.174;4.456;2023-08-31T13:34:20;23.80;99.90
25918;DHT22;13899;51.174;4.456;2023-08-31T13:36:52;24.70;99.90
25918;DHT22;13899;51.174;4.456;2023-08-31T13:39:34;24.10;99.90
25918;DHT22;13899;51.174;4.456;2023-08-31T13:42:12;22.90;99.90
25918;DHT22;13899;51.174;4.456;2023-08-31T13:44:39;23.00;99.90
25918;DHT22;13899;51.174;4.456;2023-08-31T13:47:07;22.30;99.90
25918;DHT22;13899;51.174;4.456;2023-08-31T13:49:36;22.40;99.90
25918;DHT22;13899;51.174;4.456;2023-08-31T13:52:29;22.80;99.90
25918;DHT22;13899;51.174;4.456;2023-08-31T13:54:57;22.30;99.90
25918;DHT22;13899;51.174;4.456;2023-08-31T13:57:23;21.80;99.90
25918;DHT22;13899;51.174;4.456;2023-08-31T13:59:52;21.40;99.90
25918;DHT22;13899;51.174;4.456;2023-08-31T14:02:39;21.50;99.90
25918;DHT22;13899;51.174;4.456;2023-08-31T14:05:32;21.70;99.90
25918;DHT22;13899;51.174;4.456;2023-08-31T14:07:58;21.70;99.90
25918;DHT22;13899;51.174;4.456;2023-08-31T14:10:26;22.10;99.90
25918;DHT22;13899;51.174;4.456;2023-08-31T14:13:01;22.00;99.90
25918;DHT22;13899;51.174;4.456;2023-08-31T14:15:27;21.60;99.90
25918;DHT22;13899;51.174;4.456;2023-08-31T14:17:56;22.40;99.90
25918;DHT22;13899;51.174;4.456;2023-08-31T14:20:31;23.10;99.90
25918;DHT22;13899;51.174;4.456;2023-08-31T14:23:05;23.50;99.90
25918;DHT22;13899;51.174;4.456;2023-08-31T14:25:39;23.30;99.90
25918;DHT22;13899;51.174;4.456;2023-08-31T14:28:25;23.70;99.90
25918;DHT22;13899;51.174;4.456;2023-08-31T14:30:52;23.20;99.90
25918;DHT22;13899;51.174;4.456;2023-08-31T14:33:25;23.00;99.90
25918;DHT22;13899;51.174;4.456;2023-08-31T14:35:58;23.50;99.90
25918;DHT22;13899;51.174;4.456;2023-08-31T14:38:44;22.80;99.90
25918;DHT22;13899;51.174;4.456;2023-08-31T14:41:14;22.40;99.90
25918;DHT22;13899;51.174;4.456;2023-08-31T14:43:42;21.90;99.90
25918;DHT22;13899;51.174;4.456;2023-08-31T14:46:07;21.50;99.90
25918;DHT22;13899;51.174;4.456;2023-08-31T14:48:33;21.60;99.90
25918;DHT22;13899;51.174;4.456;2023-08-31T14:50:59;21.80;99.90
25918;DHT22;13899;51.174;4.456;2023-08-31T14:53:26;22.50;99.90
25918;DHT22;13899;51.174;4.456;2023-08-31T14:55:52;22.80;99.90
25918;DHT22;13899;51.174;4.456;2023-08-31T14:58:18;22.20;99.90
25918;DHT22;13899;51.174;4.456;2023-08-31T15:00:44;22.30;99.90
25918;DHT22;13899;51.174;4.456;2023-08-31T15:03:31;22.20;99.90
25918;DHT22;13899;51.174;4.456;2023-08-31T15:05:59;21.40;99.90
25918;DHT22;13899;51.174;4.456;2023-08-31T15:08:53;21.60;99.90
25918;DHT22;13899;51.174;4.456;2023-08-31T15:11:29;22.30;99.90
25918;DHT22;13899;51.174;4.456;2023-08-31T15:13:55;22.30;99.90
25918;DHT22;13899;51.174;4.456;2023-08-31T15:16:46;22.20;99.90
25918;DHT22;13899;51.174;4.456;2023-08-31T15:19:12;21.80;99.90
25918;DHT22;13899;51.174;4.456;2023-08-31T15:21:38;21.50;99.90
25918;DHT22;13899;51.174;4.456;2023-08-31T15:24:05;21.40;99.90
25918;DHT22;13899;51.174;4.456;2023-08-31T15:26:36;21.60;99.90
25918;DHT22;13899;51.174;4.456;2023-08-31T15:29:03;21.30;99.90
25918;DHT22;13899;51.174;4.456;2023-08-31T15:31:29;21.50;99.90
25918;DHT22;13899;51.174;4.456;2023-08-31T15:33:55;21.70;99.90
25918;DHT22;13899;51.174;4.456;2023-08-31T15:36:25;21.50;99.90
25918;DHT22;13899;51.174;4.456;2023-08-31T15:38:52;20.70;99.90
25918;DHT22;13899;51.174;4.456;2023-08-31T15:41:18;20.70;99.90
25918;DHT22;13899;51.174;4.456;2023-08-31T15:43:43;20.50;99.90
25918;DHT22;13899;51.174;4.456;2023-08-31T15:46:09;20.40;99.90
25918;DHT22;13899;51.174;4.456;2023-08-31T15:48:35;20.30;99.90
25918;DHT22;13899;51.174;4.456;2023-08-31T15:51:01;20.50;99.90
25918;DHT22;13899;51.174;4.456;2023-08-31T15:53:27;20.50;99.90
25918;DHT22;13899;51.174;4.456;2023-08-31T15:55:54;20.80;99.90
25918;DHT22;13899;51.174;4.456;2023-08-31T15:58:19;20.80;99.90